sensor_id;sensor_type;location;lat;lon;timestamp;pressure;altitude;pressure_sealevel;temperature;humidity
32131;BME280;18639;50.716;7.086;2023-04-07T00:01:47;100201.44;;;8.48;100.00
32131;BME280;18639;50.716;7.086;2023-04-07T00:04:13;100221.41;;;8.58;100.00
32131;BME280;18639;50.716;7.086;2023-04-07T00:06:38;100240.00;;;8.63;100.00
32131;BME280;18639;50.716;7.086;2023-04-07T00:09:04;100222.25;;;8.59;100.00
32131;BME280;18639;50.716;7.086;2023-04-07T00:11:30;100237.97;;;8.68;100.00
32131;BME280;18639;50.716;7.086;2023-04-07T00:13:55;100232.06;;;8.66;100.00
32131;BME280;18639;50.716;7.086;2023-04-07T00:16:20;100212.78;;;8.59;100.00
32131;BME280;18639;50.716;7.086;2023-04-07T00:18:46;100221.31;;;8.60;100.00
32131;BME280;18639;50.716;7.086;2023-04-07T00:21:11;100224.34;;;8.66;100.00
32131;BME280;18639;50.716;7.086;2023-04-07T00:23:36;100220.13;;;8.65;100.00
32131;BME280;18639;50.716;7.086;2023-04-07T00:26:02;100200.63;;;8.61;100.00
32131;BME280;18639;50.716;7.086;2023-04-07T00:28:27;100199.22;;;8.56;100.00
32131;BME280;18639;50.716;7.086;2023-04-07T00:30:52;100219.19;;;8.66;100.00
32131;BME280;18639;50.716;7.086;2023-04-07T00:33:17;100197.47;;;8.56;100.00
32131;BME280;18639;50.716;7.086;2023-04-07T00:35:43;100191.97;;;8.48;100.00
32131;BME280;18639;50.716;7.086;2023-04-07T00:38:08;100207.06;;;8.68;100.00
32131;BME280;18639;50.716;7.086;2023-04-07T00:40:33;100202.91;;;8.66;100.00
32131;BME280;18639;50.716;7.086;2023-04-07T00:42:59;100174.28;;;8.42;100.00
32131;BME280;18639;50.716;7.086;2023-04-07T00:45:24;100190.50;;;8.58;100.00
32131;BME280;18639;50.716;7.086;2023-04-07T00:47:49;100205.41;;;8.67;100.00
32131;BME280;18639;50.716;7.086;2023-04-07T00:50:15;100196.97;;;8.65;100.00
32131;BME280;18639;50.716;7.086;2023-04-07T00:52:40;100171.56;;;8.59;100.00
32131;BME280;18639;50.716;7.086;2023-04-07T00:55:06;100192.53;;;8.67;100.00
32131;BME280;18639;50.716;7.086;2023-04-07T00:57:31;100151.13;;;8.42;100.00
32131;BME280;18639;50.716;7.086;2023-04-07T00:59:57;100185.34;;;8.58;100.00
32131;BME280;18639;50.716;7.086;2023-04-07T01:02:36;100192.16;;;8.73;100.00
32131;BME280;18639;50.716;7.086;2023-04-07T01:05:12;100188.75;;;8.73;100.00
32131;BME280;18639;50.716;7.086;2023-04-07T01:10:26;100188.59;;;8.76;100.00
32131;BME280;18639;50.716;7.086;2023-04-07T01:12:58;100192.53;;;8.81;100.00
32131;BME280;18639;50.716;7.086;2023-04-07T01:15:29;100135.31;;;8.48;100.00
32131;BME280;18639;50.716;7.086;2023-04-07T01:17:59;100176.72;;;8.73;100.00
32131;BME280;18639;50.716;7.086;2023-04-07T01:20:29;100183.06;;;8.82;100.00
32131;BME280;18639;50.716;7.086;2023-04-07T01:23:00;100193.34;;;8.82;100.00
32131;BME280;18639;50.716;7.086;2023-04-07T01:25:47;100191.44;;;8.85;100.00
32131;BME280;18639;50.716;7.086;2023-04-07T01:30:58;100175.44;;;8.80;100.00
32131;BME280;18639;50.716;7.086;2023-04-07T01:33:27;100189.50;;;8.89;100.00
32131;BME280;18639;50.716;7.086;2023-04-07T01:35:57;100168.91;;;8.75;100.00
32131;BME280;18639;50.716;7.086;2023-04-07T01:38:24;100188.13;;;8.83;100.00
32131;BME280;18639;50.716;7.086;2023-04-07T01:40:51;100184.63;;;8.84;100.00
32131;BME280;18639;50.716;7.086;2023-04-07T01:43:17;100174.88;;;8.75;100.00
32131;BME280;18639;50.716;7.086;2023-04-07T01:45:43;100170.66;;;8.74;100.00
32131;BME280;18639;50.716;7.086;2023-04-07T01:48:11;100186.28;;;8.85;100.00
32131;BME280;18639;50.716;7.086;2023-04-07T01:50:37;100185.47;;;8.85;100.00
32131;BME280;18639;50.716;7.086;2023-04-07T01:53:03;100180.59;;;8.80;100.00
32131;BME280;18639;50.716;7.086;2023-04-07T01:55:29;100187.00;;;8.87;100.00
32131;BME280;18639;50.716;7.086;2023-04-07T01:57:55;100193.66;;;8.92;100.00
32131;BME280;18639;50.716;7.086;2023-04-07T02:00:21;100187.00;;;8.87;100.00
32131;BME280;18639;50.716;7.086;2023-04-07T02:02:48;100179.28;;;8.87;100.00
32131;BME280;18639;50.716;7.086;2023-04-07T02:05:18;100176.06;;;8.84;100.00
32131;BME280;18639;50.716;7.086;2023-04-07T02:07:52;100175.88;;;8.87;100.00
32131;BME280;18639;50.716;7.086;2023-04-07T02:10:22;100186.66;;;8.94;100.00
32131;BME280;18639;50.716;7.086;2023-04-07T02:12:48;100160.16;;;8.77;100.00
32131;BME280;18639;50.716;7.086;2023-04-07T02:15:14;100183.25;;;8.93;100.00
32131;BME280;18639;50.716;7.086;2023-04-07T02:17:43;100188.13;;;8.98;100.00
32131;BME280;18639;50.716;7.086;2023-04-07T02:20:10;100194.84;;;9.00;100.00
32131;BME280;18639;50.716;7.086;2023-04-07T02:22:37;100187.03;;;9.02;100.00
32131;BME280;18639;50.716;7.086;2023-04-07T02:25:26;100186.81;;;9.05;100.00
32131;BME280;18639;50.716;7.086;2023-04-07T02:27:52;100175.13;;;8.99;100.00
32131;BME280;18639;50.716;7.086;2023-04-07T02:30:19;100186.66;;;9.08;100.00
32131;BME280;18639;50.716;7.086;2023-04-07T02:32:44;100188.50;;;9.06;100.00
32131;BME280;18639;50.716;7.086;2023-04-07T02:35:10;100186.00;;;9.04;100.00
32131;BME280;18639;50.716;7.086;2023-04-07T02:37:36;100187.38;;;9.10;100.00
32131;BME280;18639;50.716;7.086;2023-04-07T02:40:02;100183.13;;;9.09;100.00
32131;BME280;18639;50.716;7.086;2023-04-07T02:42:28;100174.13;;;9.02;100.00
32131;BME280;18639;50.716;7.086;2023-04-07T02:44:53;100193.56;;;9.07;100.00
32131;BME280;18639;50.716;7.086;2023-04-07T02:47:18;100159.78;;;8.83;100.00
32131;BME280;18639;50.716;7.086;2023-04-07T02:49:43;100179.09;;;9.05;100.00
32131;BME280;18639;50.716;7.086;2023-04-07T02:52:09;100190.03;;;9.08;100.00
32131;BME280;18639;50.716;7.086;2023-04-07T02:54:34;100175.69;;;9.04;100.00
32131;BME280;18639;50.716;7.086;2023-04-07T02:56:59;100193.00;;;9.16;100.00
32131;BME280;18639;50.716;7.086;2023-04-07T02:59:25;100188.03;;;9.13;100.00
32131;BME280;18639;50.716;7.086;2023-04-07T03:01:50;100179.94;;;9.05;100.00
32131;BME280;18639;50.716;7.086;2023-04-07T03:04:16;100188.94;;;9.12;100.00
32131;BME280;18639;50.716;7.086;2023-04-07T03:06:41;100200.81;;;9.15;100.00
32131;BME280;18639;50.716;7.086;2023-04-07T03:09:06;100170.81;;;9.00;100.00
32131;BME280;18639;50.716;7.086;2023-04-07T03:11:32;100143.69;;;8.80;100.00
32131;BME280;18639;50.716;7.086;2023-04-07T03:13:57;100198.34;;;9.13;100.00
32131;BME280;18639;50.716;7.086;2023-04-07T03:16:22;100169.91;;;9.01;100.00
32131;BME280;18639;50.716;7.086;2023-04-07T03:18:47;100186.47;;;9.11;100.00
32131;BME280;18639;50.716;7.086;2023-04-07T03:21:13;100197.31;;;9.16;100.00
32131;BME280;18639;50.716;7.086;2023-04-07T03:23:38;100206.72;;;9.17;100.00
32131;BME280;18639;50.716;7.086;2023-04-07T03:26:03;100177.25;;;9.07;100.00
32131;BME280;18639;50.716;7.086;2023-04-07T03:28:28;100184.09;;;9.08;100.00
32131;BME280;18639;50.716;7.086;2023-04-07T03:30:54;100199.16;;;9.14;100.00
32131;BME280;18639;50.716;7.086;2023-04-07T03:33:19;100184.09;;;9.08;100.00
32131;BME280;18639;50.716;7.086;2023-04-07T03:35:45;100189.03;;;9.11;100.00
32131;BME280;18639;50.716;7.086;2023-04-07T03:38:10;100180.75;;;9.06;100.00
32131;BME280;18639;50.716;7.086;2023-04-07T03:40:35;100187.38;;;9.10;100.00
32131;BME280;18639;50.716;7.086;2023-04-07T03:43:01;100197.13;;;9.19;100.00
32131;BME280;18639;50.716;7.086;2023-04-07T03:45:27;100192.16;;;9.16;100.00
32131;BME280;18639;50.716;7.086;2023-04-07T03:47:52;100189.25;;;9.08;100.00
32131;BME280;18639;50.716;7.086;2023-04-07T03:50:18;100187.56;;;9.07;100.00
32131;BME280;18639;50.716;7.086;2023-04-07T03:52:43;100179.38;;;9.00;100.00
32131;BME280;18639;50.716;7.086;2023-04-07T03:55:09;100197.69;;;9.10;100.00
32131;BME280;18639;50.716;7.086;2023-04-07T03:57:34;100154.81;;;8.80;100.00
32131;BME280;18639;50.716;7.086;2023-04-07T03:59:59;100203.66;;;9.10;100.00
32131;BME280;18639;50.716;7.086;2023-04-07T04:02:24;100194.19;;;9.11;100.00
32131;BME280;18639;50.716;7.086;2023-04-07T04:04:50;100206.16;;;9.12;100.00
32131;BME280;18639;50.716;7.086;2023-04-07T04:07:15;100192.06;;;9.03;100.00
32131;BME280;18639;50.716;7.086;2023-04-07T04:09:40;100210.00;;;9.19;100.00
32131;BME280;18639;50.716;7.086;2023-04-07T04:12:06;100190.44;;;9.02;100.00
32131;BME280;18639;50.716;7.086;2023-04-07T04:14:31;100207.44;;;9.05;100.00
32131;BME280;18639;50.716;7.086;2023-04-07T04:16:56;100217.22;;;9.00;100.00
32131;BME280;18639;50.716;7.086;2023-04-07T04:19:21;100199.53;;;8.94;100.00
32131;BME280;18639;50.716;7.086;2023-04-07T04:21:47;100206.34;;;8.95;100.00
32131;BME280;18639;50.716;7.086;2023-04-07T04:24:12;100208.00;;;8.96;100.00
32131;BME280;18639;50.716;7.086;2023-04-07T04:26:37;100216.56;;;8.96;100.00
32131;BME280;18639;50.716;7.086;2023-04-07T04:29:03;100224.03;;;9.01;100.00
32131;BME280;18639;50.716;7.086;2023-04-07T04:31:28;100227.88;;;8.94;100.00
32131;BME280;18639;50.716;7.086;2023-04-07T04:33:53;100216.56;;;8.96;100.00
32131;BME280;18639;50.716;7.086;2023-04-07T04:36:18;100206.72;;;8.88;100.00
32131;BME280;18639;50.716;7.086;2023-04-07T04:38:44;100237.56;;;8.90;100.00
32131;BME280;18639;50.716;7.086;2023-04-07T04:41:10;100211.31;;;8.83;100.00
32131;BME280;18639;50.716;7.086;2023-04-07T04:43:35;100221.63;;;8.83;100.00
32131;BME280;18639;50.716;7.086;2023-04-07T04:46:00;100233.38;;;8.87;100.00
32131;BME280;18639;50.716;7.086;2023-04-07T04:48:25;100236.25;;;8.83;100.00
32131;BME280;18639;50.716;7.086;2023-04-07T04:50:51;100226.97;;;8.80;100.00
32131;BME280;18639;50.716;7.086;2023-04-07T04:53:16;100228.59;;;8.81;100.00
32131;BME280;18639;50.716;7.086;2023-04-07T04:55:41;100240.41;;;8.85;100.00
32131;BME280;18639;50.716;7.086;2023-04-07T04:58:11;100239.09;;;8.78;100.00
32131;BME280;18639;50.716;7.086;2023-04-07T05:00:36;100242.50;;;8.79;100.00
32131;BME280;18639;50.716;7.086;2023-04-07T05:03:02;100242.44;;;8.80;100.00
32131;BME280;18639;50.716;7.086;2023-04-07T05:05:28;100240.91;;;8.76;100.00
32131;BME280;18639;50.716;7.086;2023-04-07T05:07:53;100257.06;;;8.80;100.00
32131;BME280;18639;50.716;7.086;2023-04-07T05:10:18;100216.72;;;8.65;100.00
32131;BME280;18639;50.716;7.086;2023-04-07T05:12:43;100248.22;;;8.84;100.00
32131;BME280;18639;50.716;7.086;2023-04-07T05:15:09;100226.84;;;8.68;100.00
32131;BME280;18639;50.716;7.086;2023-04-07T05:17:35;100254.75;;;8.75;100.00
32131;BME280;18639;50.716;7.086;2023-04-07T05:20:00;100262.38;;;8.77;100.00
32131;BME280;18639;50.716;7.086;2023-04-07T05:22:26;100253.16;;;8.73;100.00
32131;BME280;18639;50.716;7.086;2023-04-07T05:24:51;100263.38;;;8.74;100.00
32131;BME280;18639;50.716;7.086;2023-04-07T05:27:16;100231.88;;;8.55;100.00
32131;BME280;18639;50.716;7.086;2023-04-07T05:29:41;100254.34;;;8.67;100.00
32131;BME280;18639;50.716;7.086;2023-04-07T05:32:07;100263.00;;;8.66;100.00
32131;BME280;18639;50.716;7.086;2023-04-07T05:34:32;100267.50;;;8.63;100.00
32131;BME280;18639;50.716;7.086;2023-04-07T05:36:57;100239.72;;;8.54;100.00
32131;BME280;18639;50.716;7.086;2023-04-07T05:39:23;100267.97;;;8.69;100.00
32131;BME280;18639;50.716;7.086;2023-04-07T05:41:48;100267.19;;;8.53;100.00
32131;BME280;18639;50.716;7.086;2023-04-07T05:44:13;100171.97;;;8.08;100.00
32131;BME280;18639;50.716;7.086;2023-04-07T05:46:38;100247.31;;;8.55;100.00
32131;BME280;18639;50.716;7.086;2023-04-07T05:49:04;100250.84;;;8.54;100.00
32131;BME280;18639;50.716;7.086;2023-04-07T05:51:29;100272.28;;;8.69;100.00
32131;BME280;18639;50.716;7.086;2023-04-07T05:53:55;100268.41;;;8.62;100.00
32131;BME280;18639;50.716;7.086;2023-04-07T05:56:21;100273.22;;;8.68;100.00
32131;BME280;18639;50.716;7.086;2023-04-07T05:58:46;100280.19;;;8.66;100.00
32131;BME280;18639;50.716;7.086;2023-04-07T06:01:11;100247.50;;;8.52;100.00
32131;BME280;18639;50.716;7.086;2023-04-07T06:03:36;100274.59;;;8.59;100.00
32131;BME280;18639;50.716;7.086;2023-04-07T06:06:02;100262.06;;;8.53;100.00
32131;BME280;18639;50.716;7.086;2023-04-07T06:08:27;100273.41;;;8.65;100.00
32131;BME280;18639;50.716;7.086;2023-04-07T06:10:52;100288.41;;;8.72;100.00
32131;BME280;18639;50.716;7.086;2023-04-07T06:13:18;100281.22;;;8.63;100.00
32131;BME280;18639;50.716;7.086;2023-04-07T06:15:44;100294.31;;;8.74;100.00
32131;BME280;18639;50.716;7.086;2023-04-07T06:18:09;100299.44;;;8.74;100.00
32131;BME280;18639;50.716;7.086;2023-04-07T06:20:34;100281.03;;;8.66;100.00
32131;BME280;18639;50.716;7.086;2023-04-07T06:23:00;100290.94;;;8.58;100.00
32131;BME280;18639;50.716;7.086;2023-04-07T06:25:25;100257.22;;;8.33;100.00
32131;BME280;18639;50.716;7.086;2023-04-07T06:27:52;100262.75;;;8.41;100.00
32131;BME280;18639;50.716;7.086;2023-04-07T06:30:18;100298.78;;;8.71;100.00
32131;BME280;18639;50.716;7.086;2023-04-07T06:32:43;100243.59;;;8.31;100.00
32131;BME280;18639;50.716;7.086;2023-04-07T06:35:08;100303.84;;;8.72;100.00
32131;BME280;18639;50.716;7.086;2023-04-07T06:37:33;100294.84;;;8.65;100.00
32131;BME280;18639;50.716;7.086;2023-04-07T06:39:59;100287.19;;;8.64;100.00
32131;BME280;18639;50.716;7.086;2023-04-07T06:42:24;100288.09;;;8.63;100.00
32131;BME280;18639;50.716;7.086;2023-04-07T06:44:55;100298.78;;;8.71;100.00
32131;BME280;18639;50.716;7.086;2023-04-07T06:47:20;100311.22;;;8.78;100.00
32131;BME280;18639;50.716;7.086;2023-04-07T06:49:45;100316.19;;;8.81;100.00
32131;BME280;18639;50.716;7.086;2023-04-07T06:52:11;100310.47;;;8.76;100.00
32131;BME280;18639;50.716;7.086;2023-04-07T06:54:36;100326.50;;;8.81;100.00
32131;BME280;18639;50.716;7.086;2023-04-07T06:57:01;100313.72;;;8.80;100.00
32131;BME280;18639;50.716;7.086;2023-04-07T06:59:27;100301.97;;;8.60;100.00
32131;BME280;18639;50.716;7.086;2023-04-07T07:01:52;100331.16;;;8.91;100.00
32131;BME280;18639;50.716;7.086;2023-04-07T07:04:17;100319.72;;;8.80;100.00
32131;BME280;18639;50.716;7.086;2023-04-07T07:06:42;100293.81;;;8.68;100.00
32131;BME280;18639;50.716;7.086;2023-04-07T07:09:08;100331.50;;;8.84;100.00
32131;BME280;18639;50.716;7.086;2023-04-07T07:11:33;100319.22;;;8.74;100.00
32131;BME280;18639;50.716;7.086;2023-04-07T07:13:59;100310.75;;;8.72;100.00
32131;BME280;18639;50.716;7.086;2023-04-07T07:16:24;100350.09;;;8.90;100.00
32131;BME280;18639;50.716;7.086;2023-04-07T07:18:50;100336.81;;;8.81;100.00
32131;BME280;18639;50.716;7.086;2023-04-07T07:21:16;100353.03;;;8.98;100.00
32131;BME280;18639;50.716;7.086;2023-04-07T07:23:42;100356.66;;;8.95;100.00
32131;BME280;18639;50.716;7.086;2023-04-07T07:26:07;100353.22;;;8.95;100.00
32131;BME280;18639;50.716;7.086;2023-04-07T07:28:32;100349.91;;;8.93;100.00
32131;BME280;18639;50.716;7.086;2023-04-07T07:30:58;100344.19;;;8.87;100.00
32131;BME280;18639;50.716;7.086;2023-04-07T07:33:23;100360.78;;;8.98;100.00
32131;BME280;18639;50.716;7.086;2023-04-07T07:35:48;100363.19;;;9.01;100.00
32131;BME280;18639;50.716;7.086;2023-04-07T07:38:13;100376.09;;;9.01;100.00
32131;BME280;18639;50.716;7.086;2023-04-07T07:40:39;100374.50;;;8.98;100.00
32131;BME280;18639;50.716;7.086;2023-04-07T07:43:04;100363.84;;;9.04;100.00
32131;BME280;18639;50.716;7.086;2023-04-07T07:45:30;100373.31;;;9.04;100.00
32131;BME280;18639;50.716;7.086;2023-04-07T07:47:56;100354.59;;;8.86;100.00
32131;BME280;18639;50.716;7.086;2023-04-07T07:50:21;100348.97;;;8.79;100.00
32131;BME280;18639;50.716;7.086;2023-04-07T07:52:46;100365.03;;;8.99;100.00
32131;BME280;18639;50.716;7.086;2023-04-07T07:55:12;100383.72;;;9.02;100.00
32131;BME280;18639;50.716;7.086;2023-04-07T07:57:37;100371.19;;;8.96;100.00
32131;BME280;18639;50.716;7.086;2023-04-07T08:00:02;100358.75;;;8.88;100.00
32131;BME280;18639;50.716;7.086;2023-04-07T08:02:28;100378.94;;;8.96;100.00
32131;BME280;18639;50.716;7.086;2023-04-07T08:04:56;100347.94;;;8.82;100.00
32131;BME280;18639;50.716;7.086;2023-04-07T08:07:22;100371.84;;;9.00;100.00
32131;BME280;18639;50.716;7.086;2023-04-07T08:09:47;100387.78;;;9.06;100.00
32131;BME280;18639;50.716;7.086;2023-04-07T08:12:13;100365.34;;;8.78;100.00
32131;BME280;18639;50.716;7.086;2023-04-07T08:14:39;100351.47;;;8.81;100.00
32131;BME280;18639;50.716;7.086;2023-04-07T08:17:04;100390.78;;;8.99;100.00
32131;BME280;18639;50.716;7.086;2023-04-07T08:19:30;100353.97;;;8.67;100.00
32131;BME280;18639;50.716;7.086;2023-04-07T08:21:55;100409.31;;;9.05;100.00
32131;BME280;18639;50.716;7.086;2023-04-07T08:24:20;100402.22;;;9.09;100.00
32131;BME280;18639;50.716;7.086;2023-04-07T08:26:46;100409.88;;;9.10;100.00
32131;BME280;18639;50.716;7.086;2023-04-07T08:29:11;100367.84;;;8.80;100.00
32131;BME280;18639;50.716;7.086;2023-04-07T08:31:37;100410.06;;;9.07;100.00
32131;BME280;18639;50.716;7.086;2023-04-07T08:34:02;100412.53;;;9.09;100.00
32131;BME280;18639;50.716;7.086;2023-04-07T08:36:27;100416.72;;;9.11;100.00
32131;BME280;18639;50.716;7.086;2023-04-07T08:38:54;100415.69;;;9.14;100.00
32131;BME280;18639;50.716;7.086;2023-04-07T08:41:29;100414.28;;;9.08;100.00
32131;BME280;18639;50.716;7.086;2023-04-07T08:43:57;100384.50;;;8.88;100.00
32131;BME280;18639;50.716;7.086;2023-04-07T08:46:25;100415.78;;;9.12;100.00
32131;BME280;18639;50.716;7.086;2023-04-07T08:48:51;100421.81;;;9.27;100.00
32131;BME280;18639;50.716;7.086;2023-04-07T08:51:29;100421.06;;;9.25;100.00
32131;BME280;18639;50.716;7.086;2023-04-07T08:54:02;100430.28;;;9.29;100.00
32131;BME280;18639;50.716;7.086;2023-04-07T08:56:28;100425.56;;;9.21;100.00
32131;BME280;18639;50.716;7.086;2023-04-07T08:58:55;100426.22;;;9.25;100.00
32131;BME280;18639;50.716;7.086;2023-04-07T09:01:21;100412.13;;;9.16;100.00
32131;BME280;18639;50.716;7.086;2023-04-07T09:03:47;100423.81;;;9.22;100.00
32131;BME280;18639;50.716;7.086;2023-04-07T09:06:13;100410.72;;;9.11;100.00
32131;BME280;18639;50.716;7.086;2023-04-07T09:08:38;100426.97;;;9.27;100.00
32131;BME280;18639;50.716;7.086;2023-04-07T09:11:03;100435.91;;;9.36;100.00
32131;BME280;18639;50.716;7.086;2023-04-07T09:13:28;100422.91;;;9.23;100.00
32131;BME280;18639;50.716;7.086;2023-04-07T09:15:56;100439.31;;;9.36;100.00
32131;BME280;18639;50.716;7.086;2023-04-07T09:18:21;100435.06;;;9.35;100.00
32131;BME280;18639;50.716;7.086;2023-04-07T09:23:33;100418.41;;;9.26;100.00
32131;BME280;18639;50.716;7.086;2023-04-07T09:26:00;100428.44;;;9.31;100.00
32131;BME280;18639;50.716;7.086;2023-04-07T09:28:40;100410.19;;;9.20;100.00
32131;BME280;18639;50.716;7.086;2023-04-07T09:31:06;100432.75;;;9.30;100.00
32131;BME280;18639;50.716;7.086;2023-04-07T09:33:33;100418.47;;;9.25;100.00
32131;BME280;18639;50.716;7.086;2023-04-07T09:35:58;100416.91;;;9.22;100.00
32131;BME280;18639;50.716;7.086;2023-04-07T09:38:34;100439.16;;;9.39;100.00
32131;BME280;18639;50.716;7.086;2023-04-07T09:41:14;100443.97;;;9.45;100.00
32131;BME280;18639;50.716;7.086;2023-04-07T09:43:44;100446.34;;;9.48;100.00
32131;BME280;18639;50.716;7.086;2023-04-07T09:46:15;100448.38;;;9.43;100.00
32131;BME280;18639;50.716;7.086;2023-04-07T09:48:43;100449.00;;;9.47;100.00
32131;BME280;18639;50.716;7.086;2023-04-07T09:51:14;100425.31;;;9.40;100.00
32131;BME280;18639;50.716;7.086;2023-04-07T09:53:47;100446.91;;;9.53;100.00
32131;BME280;18639;50.716;7.086;2023-04-07T09:56:15;100448.94;;;9.62;100.00
32131;BME280;18639;50.716;7.086;2023-04-07T09:58:42;100413.38;;;9.39;100.00
32131;BME280;18639;50.716;7.086;2023-04-07T10:01:08;100437.53;;;9.66;100.00
32131;BME280;18639;50.716;7.086;2023-04-07T10:03:35;100414.13;;;9.69;100.00
32131;BME280;18639;50.716;7.086;2023-04-07T10:06:00;100448.59;;;9.97;100.00
32131;BME280;18639;50.716;7.086;2023-04-07T10:08:27;100439.75;;;10.01;100.00
32131;BME280;18639;50.716;7.086;2023-04-07T10:10:54;100448.88;;;10.06;100.00
32131;BME280;18639;50.716;7.086;2023-04-07T10:13:19;100441.22;;;10.05;100.00
32131;BME280;18639;50.716;7.086;2023-04-07T10:15:45;100434.41;;;10.04;100.00
32131;BME280;18639;50.716;7.086;2023-04-07T10:18:11;100441.66;;;10.11;100.00
32131;BME280;18639;50.716;7.086;2023-04-07T10:20:40;100443.25;;;10.14;100.00
32131;BME280;18639;50.716;7.086;2023-04-07T10:23:12;100445.84;;;10.14;100.00
32131;BME280;18639;50.716;7.086;2023-04-07T10:25:42;100391.66;;;9.71;100.00
32131;BME280;18639;50.716;7.086;2023-04-07T10:28:11;100443.06;;;10.03;100.00
32131;BME280;18639;50.716;7.086;2023-04-07T10:30:38;100424.34;;;9.85;100.00
32131;BME280;18639;50.716;7.086;2023-04-07T10:33:04;100446.66;;;10.00;100.00
32131;BME280;18639;50.716;7.086;2023-04-07T10:36:02;100468.34;;;9.98;100.00
32131;BME280;18639;50.716;7.086;2023-04-07T10:38:29;100460.97;;;9.92;100.00
32131;BME280;18639;50.716;7.086;2023-04-07T10:40:55;100445.00;;;9.71;100.00
32131;BME280;18639;50.716;7.086;2023-04-07T10:43:38;100446.09;;;9.67;100.00
32131;BME280;18639;50.716;7.086;2023-04-07T10:46:08;100475.84;;;9.72;100.00
32131;BME280;18639;50.716;7.086;2023-04-07T10:48:34;100455.75;;;9.63;100.00
32131;BME280;18639;50.716;7.086;2023-04-07T10:53:28;100480.66;;;9.79;100.00
32131;BME280;18639;50.716;7.086;2023-04-07T10:55:54;100464.34;;;9.64;100.00
32131;BME280;18639;50.716;7.086;2023-04-07T10:58:24;100482.69;;;9.73;100.00
32131;BME280;18639;50.716;7.086;2023-04-07T11:03:24;100478.28;;;9.76;100.00
32131;BME280;18639;50.716;7.086;2023-04-07T11:05:49;100482.06;;;9.84;100.00
32131;BME280;18639;50.716;7.086;2023-04-07T11:08:14;100478.84;;;9.81;100.00
32131;BME280;18639;50.716;7.086;2023-04-07T11:10:46;100468.97;;;9.87;100.00
32131;BME280;18639;50.716;7.086;2023-04-07T11:13:12;100458.38;;;9.92;100.00
32131;BME280;18639;50.716;7.086;2023-04-07T11:15:37;100473.84;;;10.06;100.00
32131;BME280;18639;50.716;7.086;2023-04-07T11:20:40;100466.31;;;10.03;100.00
32131;BME280;18639;50.716;7.086;2023-04-07T11:23:06;100483.19;;;10.23;100.00
32131;BME280;18639;50.716;7.086;2023-04-07T11:25:31;100486.03;;;10.32;100.00
32131;BME280;18639;50.716;7.086;2023-04-07T11:27:58;100460.59;;;10.26;100.00
32131;BME280;18639;50.716;7.086;2023-04-07T11:30:23;100465.38;;;10.32;100.00
32131;BME280;18639;50.716;7.086;2023-04-07T11:32:49;100492.38;;;10.55;100.00
32131;BME280;18639;50.716;7.086;2023-04-07T11:35:15;100499.22;;;10.56;100.00
32131;BME280;18639;50.716;7.086;2023-04-07T11:37:40;100483.19;;;10.37;100.00
32131;BME280;18639;50.716;7.086;2023-04-07T11:40:07;100493.06;;;10.44;100.00
32131;BME280;18639;50.716;7.086;2023-04-07T11:42:37;100487.16;;;10.28;100.00
32131;BME280;18639;50.716;7.086;2023-04-07T11:45:03;100497.28;;;10.31;100.00
32131;BME280;18639;50.716;7.086;2023-04-07T11:47:39;100502.56;;;10.30;100.00
32131;BME280;18639;50.716;7.086;2023-04-07T11:50:05;100496.03;;;10.24;100.00
32131;BME280;18639;50.716;7.086;2023-04-07T11:52:44;100508.81;;;10.26;100.00
32131;BME280;18639;50.716;7.086;2023-04-07T11:55:20;100506.91;;;10.29;100.00
32131;BME280;18639;50.716;7.086;2023-04-07T11:57:48;100502.84;;;10.25;100.00
32131;BME280;18639;50.716;7.086;2023-04-07T12:00:15;100511.41;;;10.26;100.00
32131;BME280;18639;50.716;7.086;2023-04-07T12:02:42;100514.75;;;10.28;100.00
32131;BME280;18639;50.716;7.086;2023-04-07T12:05:08;100497.66;;;10.11;100.00
32131;BME280;18639;50.716;7.086;2023-04-07T12:07:35;100518.31;;;10.11;100.00
32131;BME280;18639;50.716;7.086;2023-04-07T12:10:21;100526.97;;;10.10;100.00
32131;BME280;18639;50.716;7.086;2023-04-07T12:12:47;100521.16;;;10.06;100.00
32131;BME280;18639;50.716;7.086;2023-04-07T12:15:13;100536.50;;;10.09;100.00
32131;BME280;18639;50.716;7.086;2023-04-07T12:17:44;100532.13;;;10.10;100.00
32131;BME280;18639;50.716;7.086;2023-04-07T12:20:10;100532.31;;;10.07;100.00
32131;BME280;18639;50.716;7.086;2023-04-07T12:22:36;100524.03;;;10.02;100.00
32131;BME280;18639;50.716;7.086;2023-04-07T12:25:01;100544.63;;;10.18;100.00
32131;BME280;18639;50.716;7.086;2023-04-07T12:27:26;100535.75;;;10.22;100.00
32131;BME280;18639;50.716;7.086;2023-04-07T12:29:52;100510.22;;;10.17;100.00
32131;BME280;18639;50.716;7.086;2023-04-07T12:32:17;100530.88;;;10.31;100.00
32131;BME280;18639;50.716;7.086;2023-04-07T12:34:43;100521.84;;;10.38;100.00
32131;BME280;18639;50.716;7.086;2023-04-07T12:37:08;100533.66;;;10.57;100.00
32131;BME280;18639;50.716;7.086;2023-04-07T12:39:34;100534.53;;;10.70;100.00
32131;BME280;18639;50.716;7.086;2023-04-07T12:41:59;100529.38;;;10.70;100.00
32131;BME280;18639;50.716;7.086;2023-04-07T12:44:24;100519.19;;;10.81;100.00
32131;BME280;18639;50.716;7.086;2023-04-07T12:46:50;100530.81;;;10.88;100.00
32131;BME280;18639;50.716;7.086;2023-04-07T12:49:15;100530.13;;;10.98;100.00
32131;BME280;18639;50.716;7.086;2023-04-07T12:51:40;100546.47;;;10.99;100.00
32131;BME280;18639;50.716;7.086;2023-04-07T12:54:06;100543.22;;;11.10;100.00
32131;BME280;18639;50.716;7.086;2023-04-07T12:56:31;100547.19;;;11.15;100.00
32131;BME280;18639;50.716;7.086;2023-04-07T12:58:57;100542.38;;;11.09;100.00
32131;BME280;18639;50.716;7.086;2023-04-07T13:01:22;100548.56;;;11.07;100.00